Latest Weather Observations for Mount Crawford

IDS60901

Issued at 7:41 pm CST Tuesday 30 June 2015 (issued every 10 minutes, with the page automatically refreshed every 10 minutes)

About weather observations | Map of Adelaide area stations | Latest observations for Adelaide area | Other Formats
Station Details ID: 023878 Name: MT CRAWFORD AWS Lat: -34.73 Lon: 138.93 Height: 525.0 m
Data from the previous 72 hours. | See also: Recent months at Mount Crawford
Date/Time
CST
Tmp

°C
App
Tmp
°C
Dew
Point
°C
Rel
Hum
%
Delta-T

°C
Wind Press
QNH
hPa
Press
MSL
hPa
Rain
since
9 am
mm
Dir
 
Spd
km/h
Gust
km/h
Spd
kts
Gust
kts
30/07:30pm 7.5 5.3 6.0 90 0.7 SW 7 9 4 5 1029.6 1030.0 0.0
30/07:00pm 7.6 5.3 5.7 88 0.9 SW 7 7 4 4 1029.3 1029.7 0.0
30/06:30pm 7.6 4.9 5.6 87 0.9 SSW 9 11 5 6 1028.8 1029.3 0.0
30/06:00pm 7.8 5.0 5.3 84 1.1 SW 9 13 5 7 1028.6 1029.1 0.0
30/05:30pm 7.8 4.9 4.9 82 1.3 SW 9 13 5 7 1028.3 1028.7 0.0
30/05:00pm 8.1 5.2 4.9 80 1.5 SW 9 9 5 5 1028.1 1028.5 0.0
30/04:30pm 8.4 5.5 4.4 76 1.8 WSW 9 13 5 7 1028.0 1028.4 0.0
30/04:00pm 8.7 6.1 4.3 74 2.0 SW 7 13 4 7 1027.9 1028.3 0.0
30/03:30pm 9.0 5.7 4.6 74 2.0 SW 11 17 6 9 1027.8 1028.2 0.0
30/03:00pm 8.8 5.1 4.4 74 2.0 WSW 13 19 7 10 1027.9 1028.3 0.0
30/02:30pm 8.9 5.5 3.9 71 2.2 WSW 11 19 6 10 1027.9 1028.3 0.0
30/02:00pm 9.5 6.5 3.9 68 2.5 WSW 9 13 5 7 1027.8 1028.2 0.0
30/01:30pm 9.4 6.3 3.4 66 2.7 SE 9 13 5 7 1028.0 1028.4 0.0
30/01:00pm 10.1 7.5 4.0 66 2.8 W 7 13 4 7 1028.2 1028.6 0.0
30/12:30pm 8.5 5.4 3.4 70 2.2 W 9 11 5 6 1028.6 1029.1 0.0
30/12:00pm 8.3 4.7 2.8 68 2.4 WSW 11 19 6 10 1029.1 1029.6 0.0
30/11:30am 8.5 4.4 2.3 65 2.7 WSW 13 19 7 10 1029.6 1030.0 0.0
30/11:00am 8.6 5.0 2.8 67 2.5 WSW 11 19 6 10 1029.8 1030.2 0.0
30/10:30am 8.7 5.5 3.1 68 2.4 WSW 9 13 5 7 1029.9 1030.3 0.0
30/10:00am 7.9 4.4 1.5 64 2.7 WSW 9 13 5 7 1029.8 1030.2 0.0
30/09:30am 7.4 4.3 1.3 65 2.5 W 7 9 4 5 1029.7 1030.1 0.0
30/09:00am 6.6 3.2 1.7 71 2.0 SW 9 13 5 7 1029.4 1029.8 0.0
30/08:30am 6.4 2.9 1.5 71 2.0 SW 9 13 5 7 1029.3 1029.7 0.0
30/08:00am 6.4 2.5 1.1 69 2.2 SW 11 13 6 7 1028.9 1029.4 0.0
30/07:30am 6.2 1.9 1.1 70 2.1 WSW 13 17 7 9 1028.8 1029.3 0.0
30/07:00am 6.3 2.0 1.0 69 2.2 SW 13 13 7 7 1028.4 1028.8 0.0
30/06:30am 6.3 2.4 1.0 69 2.2 SW 11 13 6 7 1028.2 1028.6 0.0
30/06:00am 6.4 3.3 1.3 70 2.1 WSW 7 11 4 6 1027.9 1028.3 0.0
30/05:30am 6.4 3.3 1.5 71 2.0 WSW 7 9 4 5 1027.9 1028.3 0.0
30/05:00am 6.5 3.0 1.4 70 2.1 WSW 9 9 5 5 1027.9 1028.3 0.0
30/04:30am 6.6 3.5 1.3 69 2.2 NW 7 9 4 5 1027.7 1028.1 0.0
30/04:00am 6.6 3.5 1.5 70 2.1 WNW 7 7 4 4 1027.6 1028.0 0.0
30/03:30am 6.8 3.9 1.3 68 2.3 NW 6 7 3 4 1027.8 1028.2 0.0
30/03:00am 6.8 3.8 1.1 67 2.3 NW 6 7 3 4 1027.8 1028.2 0.0
30/02:30am 7.0 3.9 1.3 67 2.4 NNW 7 9 4 5 1027.8 1028.2 0.0
30/02:00am 7.0 3.9 1.1 66 2.4 NNW 7 9 4 5 1028.0 1028.4 0.0
30/01:30am 7.0 3.5 1.5 68 2.3 NNW 9 11 5 6 1028.1 1028.5 0.0
30/01:00am 7.0 4.2 1.9 70 2.1 NW 6 7 3 4 1028.2 1028.6 0.0
30/12:30am 7.0 4.2 2.3 72 2.0 N 6 9 3 5 1028.5 1028.9 0.0
30/12:00am 7.4 5.7 1.7 67 2.4 CALM 0 0 0 0 1028.8 1029.3 0.0
 
Date/Time
CST
Tmp

°C
App
Tmp
°C
Dew
Point
°C
Rel
Hum
%
Delta-T

°C
Wind Press
QNH
hPa
Press
MSL
hPa
Rain
since
9 am
mm
Dir
 
Spd
km/h
Gust
km/h
Spd
kts
Gust
kts
29/11:30pm 7.4 4.6 1.9 68 2.3 N 6 6 3 3 1028.9 1029.4 0.0
29/11:00pm 7.8 4.8 1.9 66 2.5 NNE 7 11 4 6 1029.0 1029.5 0.0
29/10:30pm 7.4 4.4 2.1 69 2.2 ESE 7 7 4 4 1029.3 1029.7 0.0
29/10:00pm 7.4 4.4 2.1 69 2.3 ESE 7 9 4 5 1029.3 1029.7 0.0
29/09:30pm 7.7 4.3 1.8 66 2.5 ESE 9 15 5 8 1029.4 1029.8 0.0
29/09:00pm 8.0 4.1 1.4 63 2.8 E 11 15 6 8 1029.6 1030.0 0.0
29/08:30pm 7.5 4.1 2.0 68 2.3 E 9 9 5 5 1029.6 1030.0 0.0
29/08:00pm 7.8 4.4 1.6 65 2.6 E 9 11 5 6 1029.6 1030.0 0.0
29/07:30pm 7.6 4.6 1.9 67 2.4 E 7 9 4 5 1029.5 1029.9 0.0
29/07:00pm 7.6 4.3 2.7 71 2.1 E 9 11 5 6 1029.4 1029.8 0.0
29/06:30pm 7.7 4.4 2.4 69 2.3 ENE 9 13 5 7 1029.1 1029.6 0.0
29/06:00pm 7.7 4.4 2.6 70 2.2 ENE 9 11 5 6 1028.8 1029.3 0.0
29/05:30pm 7.8 4.5 2.5 69 2.3 E 9 13 5 7 1028.8 1029.3 0.0
29/05:00pm 7.9 4.8 3.4 73 2.0 ENE 9 11 5 6 1028.7 1029.2 0.0
29/04:30pm 8.3 5.7 3.4 71 2.1 ESE 6 7 3 4 1028.8 1029.3 0.0
29/04:00pm 8.5 5.2 2.5 66 2.6 ENE 9 11 5 6 1028.9 1029.4 0.0
29/03:30pm 8.8 5.9 2.4 64 2.8 ESE 7 11 4 6 1029.0 1029.5 0.0
29/03:00pm 9.0 6.2 3.0 66 2.6 E 7 13 4 7 1029.1 1029.6 0.0
29/02:30pm 8.8 5.1 2.6 65 2.7 NE 11 15 6 8 1029.3 1029.7 0.0
29/02:00pm 8.8 5.2 2.8 66 2.6 NE 11 17 6 9 1029.5 1029.9 0.0
29/01:30pm 8.8 5.6 3.2 68 2.5 NE 9 13 5 7 1029.8 1030.2 0.0
29/01:00pm 8.8 5.2 3.2 68 2.5 NNE 11 15 6 8 1030.2 1030.7 0.0
29/12:30pm 8.8 5.6 2.8 66 2.6 NNE 9 13 5 7 1030.6 1031.1 0.0
29/12:00pm 8.8 5.3 3.4 69 2.4 NE 11 15 6 8 1031.4 1031.8 0.0
29/11:30am 8.6 5.6 4.2 74 2.0 NE 9 11 5 6 1032.0 1032.5 0.0
29/11:00am 8.1 5.0 3.8 74 1.9 ENE 9 13 5 7 1032.2 1032.7 0.0
29/10:30am 8.0 5.0 4.0 76 1.8 ENE 9 13 5 7 1032.3 1032.8 0.0
29/10:00am 7.7 4.7 3.9 77 1.7 ENE 9 13 5 7 1032.5 1033.0 0.0
29/09:30am 7.5 4.0 3.6 76 1.7 ENE 11 13 6 7 1032.2 1032.7 0.0
29/09:00am 7.2 4.1 3.6 78 1.6 E 9 13 5 7 1032.1 1032.6 0.0
29/08:30am 6.8 3.3 3.6 80 1.4 E 11 15 6 8 1032.1 1032.6 0.0
29/08:00am 6.7 2.8 3.3 79 1.5 E 13 17 7 9 1031.8 1032.3 0.0
29/07:30am 6.6 2.3 3.2 79 1.5 ENE 15 17 8 9 1031.8 1032.3 0.0
29/07:00am 6.4 1.7 2.9 78 1.5 ENE 17 22 9 12 1031.4 1031.8 0.0
29/06:30am 6.1 1.4 3.1 81 1.3 E 17 19 9 10 1031.1 1031.6 0.0
29/06:00am 6.1 1.4 3.1 81 1.3 E 17 20 9 11 1030.9 1031.4 0.0
29/05:30am 5.6 1.2 2.8 82 1.2 E 15 19 8 10 1030.8 1031.3 0.0
29/05:00am 6.0 1.2 2.6 79 1.4 E 17 22 9 12 1030.6 1031.1 0.0
29/04:30am 6.3 1.2 2.9 79 1.4 E 19 24 10 13 1030.7 1031.2 0.0
29/04:00am 6.3 1.2 2.9 79 1.5 E 19 22 10 12 1030.9 1031.4 0.0
29/03:30am 6.7 1.6 3.0 77 1.6 E 19 24 10 13 1031.3 1031.7 0.0
29/03:00am 6.7 1.5 3.3 79 1.5 E 20 28 11 15 1031.4 1031.8 0.0
29/02:30am 6.4 1.4 3.6 82 1.2 E 19 22 10 12 1031.5 1031.9 0.0
29/02:00am 5.8 1.2 3.6 86 1.0 E 17 22 9 12 1031.6 1032.0 0.0
29/01:30am 6.1 1.4 3.3 82 1.2 E 17 22 9 12 1031.6 1032.0 0.0
29/01:00am 6.5 1.9 3.5 81 1.3 E 17 20 9 11 1031.8 1032.3 0.0
29/12:30am 6.5 1.4 3.3 80 1.4 E 19 24 10 13 1032.0 1032.5 0.0
29/12:00am 6.2 1.2 3.4 82 1.2 E 19 22 10 12 1032.3 1032.8 0.0
 
Date/Time
CST
Tmp

°C
App
Tmp
°C
Dew
Point
°C
Rel
Hum
%
Delta-T

°C
Wind Press
QNH
hPa
Press
MSL
hPa
Rain
since
9 am
mm
Dir
 
Spd
km/h
Gust
km/h
Spd
kts
Gust
kts
28/11:30pm 6.9 1.9 3.7 80 1.4 E 19 24 10 13 1032.5 1033.0 0.0
28/11:00pm 6.4 1.2 3.4 81 1.3 ENE 20 24 11 13 1032.5 1033.0 0.0
28/10:30pm 6.8 1.8 3.6 80 1.4 E 19 24 10 13 1032.5 1033.0 0.0
28/10:00pm 6.6 2.0 3.6 81 1.3 E 17 22 9 12 1032.7 1033.2 0.0
28/09:30pm 6.8 1.8 3.8 81 1.3 E 19 22 10 12 1032.7 1033.2 0.0
28/09:00pm 6.6 2.0 3.8 82 1.2 E 17 20 9 11 1032.5 1033.0 0.0
28/08:30pm 6.7 2.1 3.9 82 1.2 E 17 20 9 11 1032.6 1033.1 0.0
28/08:00pm 6.6 2.0 3.9 83 1.2 E 17 20 9 11 1032.6 1033.1 0.0
28/07:30pm 6.8 2.6 3.9 82 1.3 E 15 20 8 11 1032.6 1033.1 0.0
28/07:00pm 6.9 2.4 4.2 83 1.2 ESE 17 20 9 11 1032.6 1033.1 0.0
28/06:30pm 7.2 3.5 4.5 83 1.2 ESE 13 17 7 9 1032.5 1033.0 0.0
28/06:00pm 7.5 3.8 4.6 82 1.3 E 13 13 7 7 1032.2 1032.7 0.0
28/05:30pm 8.1 4.8 4.3 77 1.7 E 11 13 6 7 1032.0 1032.5 0.0
28/05:00pm 8.9 6.0 4.7 75 1.9 E 9 13 5 7 1031.9 1032.4 0.0
28/04:30pm 9.4 6.9 4.6 72 2.2 E 7 9 4 5 1031.9 1032.4 0.0
28/04:00pm 10.1 7.2 4.7 69 2.5 NE 9 13 5 7 1032.0 1032.5 0.0
28/03:30pm 10.9 8.2 5.7 70 2.5 NE 9 13 5 7 1032.1 1032.6 0.0
28/03:00pm 10.3 7.1 4.9 69 2.5 ESE 11 15 6 8 1032.1 1032.6 0.0
28/02:30pm 9.4 6.9 4.8 73 2.1 E 7 9 4 5 1032.3 1032.8 0.0
28/02:00pm 9.6 6.3 4.8 72 2.2 ENE 11 19 6 10 1032.3 1032.8 0.0
28/01:30pm 10.4 6.5 5.2 70 2.4 ENE 15 20 8 11 1032.4 1032.9 0.0
28/01:00pm 10.2 6.4 5.6 73 2.2 ENE 15 20 8 11 1032.6 1033.1 0.0
28/12:30pm 9.5 5.2 5.3 75 1.9 E 17 28 9 15 1032.9 1033.4 0.0
28/12:00pm 10.1 5.3 5.5 73 2.1 ENE 20 28 11 15 1033.4 1033.8 0.0
28/11:30am 10.2 5.7 6.2 76 1.9 E 19 28 10 15 1033.7 1034.2 0.0
28/11:00am 9.9 5.4 6.8 81 1.5 ENE 20 30 11 16 1034.1 1034.6 0.0
28/10:30am 9.3 4.9 6.7 84 1.2 ENE 19 26 10 14 1034.2 1034.7 0.0
28/10:00am 9.1 4.3 7.4 89 0.8 ENE 22 30 12 16 1034.0 1034.5 0.0
28/09:30am 8.2 3.6 6.7 90 0.7 ENE 20 26 11 14 1033.9 1034.4 0.0
28/09:00am 7.3 2.6 6.1 92 0.6 E 20 28 11 15 1033.7 1034.2 0.0
28/08:30am 6.5 1.4 5.9 96 0.3 E 22 32 12 17 1033.5 1034.0 0.0
28/08:00am 5.9 0.7 5.5 97 0.2 E 22 30 12 16 1033.1 1033.6 0.0
28/07:30am 5.7 0.1 5.4 98 0.1 E 24 32 13 17 1032.8 1033.3 0.0
28/07:00am 5.5 -0.1 5.4 99 0.0 E 24 32 13 17 1032.4 1032.9 0.0
28/06:30am 5.0 -0.3 4.9 99 0.0 E 22 28 12 15 1032.1 1032.6 0.0
28/06:00am 5.1 0.4 5.0 99 0.0 E 19 24 10 13 1032.0 1032.5 0.0
28/05:30am 5.2 0.5 5.1 99 0.0 E 19 24 10 13 1031.8 1032.3 0.0
28/05:00am 5.5 0.9 5.4 99 0.0 E 19 22 10 12 1031.7 1032.1 0.0
28/04:30am 5.6 1.2 5.0 96 0.3 E 17 20 9 11 1031.8 1032.3 0.0
28/04:00am 6.2 1.8 4.7 90 0.7 E 17 22 9 12 1032.0 1032.5 0.0
28/03:30am 6.5 2.1 4.5 87 0.9 E 17 22 9 12 1032.0 1032.5 0.0
28/03:00am 6.8 1.8 4.6 86 1.0 ESE 20 24 11 13 1032.1 1032.6 0.0
28/02:30am 6.9 1.9 4.7 86 1.0 E 20 26 11 14 1032.2 1032.7 0.0
28/02:00am 6.4 1.6 4.9 90 0.7 E 19 26 10 14 1032.2 1032.7 0.0
28/01:30am 6.6 2.2 4.9 89 0.8 E 17 24 9 13 1032.2 1032.7 0.0
28/01:00am 6.2 1.5 5.0 92 0.5 E 19 24 10 13 1032.1 1032.6 0.0
28/12:30am 6.3 1.4 4.9 91 0.6 E 20 26 11 14 1032.1 1032.6 0.0
28/12:00am 6.5 1.7 4.8 89 0.8 E 19 24 10 13 1032.3 1032.8 0.0
 
Date/Time
CST
Tmp

°C
App
Tmp
°C
Dew
Point
°C
Rel
Hum
%
Delta-T

°C
Wind Press
QNH
hPa
Press
MSL
hPa
Rain
since
9 am
mm
Dir
 
Spd
km/h
Gust
km/h
Spd
kts
Gust
kts
27/11:30pm 6.7 2.0 5.0 89 0.8 E 19 24 10 13 1032.2 1032.7 0.0
27/11:00pm 6.9 2.2 5.2 89 0.8 E 19 24 10 13 1032.3 1032.8 0.0
27/10:30pm 6.8 2.1 5.1 89 0.8 ESE 19 22 10 12 1032.4 1032.9 0.0
27/10:00pm 6.7 2.3 5.0 89 0.8 E 17 20 9 11 1032.4 1032.9 0.0
27/09:30pm 7.2 2.3 5.2 87 0.9 ESE 20 24 11 13 1032.5 1033.0 0.0
27/09:00pm 7.4 2.7 5.2 86 1.0 ESE 19 24 10 13 1032.6 1033.1 0.0
27/08:30pm 7.7 3.4 5.3 85 1.1 SE 17 20 9 11 1032.7 1033.2 0.0
27/08:00pm 7.5 3.2 5.1 85 1.1 SE 17 20 9 11 1032.7 1033.2 0.0

Latest Capital City Observations: Canberra | Sydney | Melbourne | Brisbane | Adelaide | Perth | Hobart | Darwin

Other Formats:

Comma delimited format used in spreadsheet applications
http://www.bom.gov.au/fwo/IDS60901/IDS60901.94678.axf

JavaScript Object Notation format (JSON) in row-major order
http://www.bom.gov.au/fwo/IDS60901/IDS60901.94678.json